Terminal Aerodrome Forecast
Issued by NWS

Home | Current Version | Previous Version | Text Only | Print | Product List | Glossary On
Versions: 1 2 3 4 5 6 7 8 9 10 11 12 13 14 15 16
987
FTUS45 KPSR 231121
TAFIPL
TAF
KIPL 231121Z 2312/2412 26010KT P6SM SCT050 OVC080
     FM231400 25015G22KT P6SM VCSH FEW050 BKN080 BKN120
      TEMPO 2318/2322 27021G30KT
     FM240300 26014KT P6SM SCT100 SCT250=

USA.gov is the U.S. government's official web portal to all federal, state and local government web resources and services.